Latest Weather Observations for Wyndham Airport

IDW60801

Issued at 8:23 pm WST Saturday 25 January 2020 (issued every 10 minutes, with the page automatically refreshed every 10 minutes)

About weather observations | Map of weather stations | Latest weather observations for WA | Other Formats
Station Details ID: 001006 Name: WYNDHAM AERO Lat: -15.51 Lon: 128.15 Height: 3.8 m
Data from the previous 72 hours. | See also: Recent months at Wyndham Airport
Date/Time
WST
Temp
°C
App
Temp
°C
Dew
Point
°C
Rel
Hum
%
Delta-T
°C
Wind Press
QNH
hPa
Press
MSL
hPa
Rain since
9am
mm
Dir  Spd
km/h
Gust
km/h
Spd
kts
Gust
kts
25/08:00pm 27.5 31.7 24.7 85 2.0 WSW 11 13 6 7 1008.2 1008.2 8.0
25/07:30pm 27.3 31.0 24.6 85 1.9 WSW 13 15 7 8 1008.0 1008.0 8.0
25/07:00pm 27.0 29.7 24.1 84 2.0 SW 17 19 9 10 1007.5 1007.5 8.0
25/06:30pm 27.0 29.6 23.9 83 2.1 SW 17 20 9 11 1006.9 1006.9 8.0
25/06:00pm 28.5 30.0 24.3 78 2.9 W 24 30 13 16 1006.5 1006.5 8.0
25/05:30pm 28.8 32.2 24.1 76 3.3 NW 13 20 7 11 1005.8 1005.8 8.0
25/05:00pm 28.4 32.6 23.5 75 3.4 NNW 7 9 4 5 1005.8 1005.8 8.0
25/04:30pm 27.9 31.3 24.1 80 2.6 NNW 13 19 7 10 1005.5 1005.5 8.0
25/04:00pm 27.6 31.7 24.0 81 2.5 N 9 13 5 7 1005.6 1005.6 8.0
25/03:30pm 27.1 31.8 24.0 83 2.1 N 6 7 3 4 1005.2 1005.2 8.0
25/03:00pm 26.8 29.2 23.7 83 2.1 W 17 22 9 12 1005.6 1005.6 8.0
25/02:30pm 26.5 28.1 23.8 85 1.9 SSE 22 35 12 19 1005.8 1005.8 8.0
25/02:28pm 26.1 27.7 24.5 91 1.1 SE 24 35 13 19 1005.7 1005.7 8.0
25/02:00pm 24.9 21.1 23.1 90 1.2 ESE 48 63 26 34 1005.7 1005.7 6.2
25/01:42pm 25.8 22.0 23.7 88 1.4 SE 50 69 27 37 1006.0 1006.0 4.4
25/01:30pm 25.3 19.5 23.9 92 1.0 SE 61 76 33 41 1005.8 1005.8 3.4
25/01:22pm 27.0 25.4 22.6 77 3.0 E 35 76 19 41 1005.6 1005.6 0.0
25/01:19pm 30.9 30.8 21.4 57 6.4 ENE 24 56 13 30 1005.8 1005.8 0.0
25/01:00pm 34.1 38.3 24.1 56 7.0 NNW 9 13 5 7 1005.3 1005.3 0.0
25/12:30pm 34.5 37.0 23.8 53 7.5 N 17 19 9 10 1005.9 1005.9 0.0
25/12:00pm 35.0 37.4 22.3 47 8.7 NNW 13 20 7 11 1005.8 1005.8 0.0
25/11:30am 35.8 40.0 23.4 48 8.6 S 7 17 4 9 1006.0 1006.0 0.0
25/11:00am 35.8 39.0 23.1 48 8.8 SW 11 20 6 11 1006.8 1006.8 0.0
25/10:30am 35.3 40.2 24.6 54 7.6 SW 7 13 4 7 1007.3 1007.3 0.0
25/10:00am 34.6 40.4 25.1 57 6.8 SW 4 11 2 6 1007.9 1007.9 0.0
25/09:30am 33.6 38.6 24.8 60 6.2 SW 7 11 4 6 1008.3 1008.3 0.0
25/09:00am 33.1 37.7 24.8 61 5.9 SSW 9 15 5 8 1008.5 1008.5 0.0
25/08:30am 32.0 38.2 26.3 72 4.1 ESE 6 11 3 6 1008.5 1008.5 0.0
25/08:00am 31.6 39.2 26.8 75 3.5 CALM 0 0 0 0 1008.3 1008.3 0.0
25/07:30am 30.7 37.5 27.5 83 2.3 ESE 7 9 4 5 1008.0 1008.0 0.0
25/07:00am 30.3 36.7 27.5 85 2.0 ESE 9 11 5 6 1007.8 1007.8 0.0
25/06:30am 29.9 35.7 27.7 88 1.6 SE 13 15 7 8 1007.5 1007.5 0.0
25/06:00am 29.4 35.1 27.6 90 1.3 ESE 13 15 7 8 1007.1 1007.1 0.0
25/05:30am 29.0 34.6 27.4 91 1.2 ESE 13 13 7 7 1006.7 1006.7 0.0
25/05:00am 29.1 34.8 27.5 91 1.2 ESE 13 17 7 9 1006.5 1006.5 0.0
25/04:30am 29.2 34.9 27.6 91 1.2 ESE 13 15 7 8 1006.2 1006.2 0.0
25/04:00am 29.3 35.1 27.7 91 1.2 ESE 13 15 7 8 1006.0 1006.0 0.0
25/03:30am 29.2 35.9 27.4 90 1.3 E 7 9 4 5 1005.7 1005.7 0.0
25/03:00am 29.4 36.3 27.6 90 1.3 ESE 7 9 4 5 1005.8 1005.8 0.0
25/02:30am 29.4 35.1 27.6 90 1.3 ESE 13 15 7 8 1006.0 1006.0 0.0
25/02:00am 29.6 35.3 27.6 89 1.5 SE 13 17 7 9 1006.2 1006.2 0.0
25/01:30am 29.8 35.1 27.6 88 1.6 SE 15 17 8 9 1006.1 1006.1 0.0
25/01:00am 30.0 35.2 27.4 86 1.9 ESE 15 20 8 11 1006.3 1006.3 0.0
25/12:30am 30.3 36.7 26.9 82 2.4 NNW 7 9 4 5 1006.3 1006.3 0.0
25/12:00am 30.5 37.3 26.7 80 2.7 NNW 4 6 2 3 1006.7 1006.7 0.0
 
Date/Time
WST
Temp
°C
App
Temp
°C
Dew
Point
°C
Rel
Hum
%
Delta-T
°C
Wind Press
QNH
hPa
Press
MSL
hPa
Rain since
9am
mm
Dir  Spd
km/h
Gust
km/h
Spd
kts
Gust
kts
24/11:30pm 30.8 37.2 26.7 79 2.9 NNW 6 9 3 5 1007.0 1007.0 0.0
24/11:00pm 30.8 37.0 26.7 79 2.9 NNW 7 9 4 5 1007.1 1007.1 0.0
24/10:30pm 30.7 36.0 26.4 78 3.1 NNW 11 13 6 7 1007.4 1007.4 0.0
24/10:00pm 30.8 37.0 26.7 79 2.9 NNW 7 9 4 5 1007.6 1007.6 0.0
24/09:30pm 30.9 36.7 26.6 78 3.1 NNW 9 13 5 7 1007.6 1007.6 0.0
24/09:00pm 31.1 36.2 26.1 75 3.6 NNW 11 13 6 7 1007.3 1007.3 0.0
24/08:30pm 31.3 36.4 26.1 74 3.7 NNW 11 15 6 8 1007.1 1007.1 0.0
24/08:00pm 31.0 36.1 25.6 73 3.8 E 9 11 5 6 1006.7 1006.7 0.0
24/07:30pm 32.1 37.0 24.4 63 5.4 SSW 6 7 3 4 1006.5 1006.5 0.0
24/07:00pm 31.8 37.9 24.4 65 5.2 CALM 0 0 0 0 1006.3 1006.3 0.0
24/06:30pm 32.3 38.5 24.6 64 5.4 CALM 0 0 0 0 1006.0 1006.0 0.0
24/06:00pm 32.4 39.0 25.2 66 5.1 CALM 0 0 0 0 1005.4 1005.4 0.0
24/05:30pm 32.8 37.7 23.7 58 6.3 SSW 4 7 2 4 1005.0 1005.0 0.0
24/05:00pm 33.4 38.6 22.8 53 7.3 CALM 0 0 0 0 1004.4 1004.4 0.0
24/04:30pm 33.5 37.6 23.2 54 7.1 SSW 7 9 4 5 1004.4 1004.4 0.0
24/04:00pm 33.8 37.1 21.9 49 8.1 SW 7 11 4 6 1004.5 1004.5 0.0
24/03:30pm 34.2 38.1 23.6 54 7.4 SW 9 13 5 7 1004.7 1004.7 0.0
24/03:00pm 33.7 37.8 24.0 57 6.8 W 9 15 5 8 1005.0 1005.0 0.0
24/02:30pm 33.2 37.6 24.4 60 6.2 SSW 9 13 5 7 1005.3 1005.3 0.0
24/02:00pm 32.9 35.8 23.2 56 6.7 S 13 17 7 9 1005.4 1005.4 0.0
24/01:30pm 32.9 36.6 23.2 56 6.7 S 9 15 5 8 1005.6 1005.6 0.0
24/01:00pm 33.6 36.7 22.1 51 7.9 S 9 15 5 8 1005.7 1005.7 0.0
24/12:30pm 33.1 36.6 22.2 52 7.4 SW 7 11 4 6 1005.8 1005.8 0.0
24/12:00pm 32.5 35.0 23.2 58 6.4 SW 15 19 8 10 1006.2 1006.2 0.0
24/11:30am 32.2 35.2 23.4 59 6.1 SSW 13 19 7 10 1006.6 1006.6 0.0
24/11:00am 32.4 36.9 23.9 61 5.9 NNW 7 11 4 6 1006.8 1006.8 0.0
24/10:30am 31.4 35.3 23.0 61 5.8 N 7 11 4 6 1007.2 1007.2 0.0
24/10:00am 31.3 35.7 23.4 63 5.5 WNW 6 11 3 6 1007.3 1007.3 0.0
24/09:30am 30.9 34.4 23.5 64 5.1 WNW 11 15 6 8 1007.4 1007.4 0.0
24/09:00am 30.3 32.9 22.7 64 5.2 WNW 13 19 7 10 1007.7 1007.7 1.4
24/08:30am 29.5 31.9 23.7 71 4.0 WNW 17 20 9 11 1007.7 1007.7 1.2
24/08:00am 28.6 31.5 24.4 78 2.9 WNW 17 20 9 11 1007.6 1007.6 1.2
24/07:30am 28.2 30.7 24.4 80 2.6 W 19 22 10 12 1007.7 1007.7 1.2
24/07:00am 27.1 29.0 24.4 85 1.9 WSW 22 30 12 16 1007.6 1007.6 1.2
24/06:30am 26.6 29.0 24.3 87 1.6 W 19 24 10 13 1007.9 1007.9 1.2
24/06:00am 26.2 28.6 23.7 86 1.7 W 17 20 9 11 1007.7 1007.7 1.2
24/05:30am 26.0 26.6 24.2 90 1.2 SW 28 35 15 19 1007.3 1007.3 1.2
24/05:21am 26.1 26.9 24.5 91 1.1 SW 28 35 15 19 1007.1 1007.1 1.2
24/05:00am 26.3 30.0 24.5 90 1.2 W 13 17 7 9 1006.2 1006.2 1.2
24/04:30am 25.8 29.4 24.4 92 1.0 WNW 13 15 7 8 1005.8 1005.8 1.2
24/04:00am 25.6 29.1 24.2 92 1.0 SW 13 17 7 9 1005.9 1005.9 1.2
24/03:30am 25.6 29.5 24.2 92 1.0 SW 11 13 6 7 1006.0 1006.0 1.0
24/03:00am 26.0 30.5 23.9 88 1.4 SW 7 11 4 6 1006.4 1006.4 0.6
24/02:30am 26.5 29.0 23.8 85 1.9 SSW 17 20 9 11 1006.6 1006.6 0.2
24/02:00am 27.5 30.7 23.7 80 2.6 SSW 13 19 7 10 1007.0 1007.0 0.2
24/01:30am 27.7 32.0 24.3 82 2.4 S 9 13 5 7 1007.4 1007.4 0.2
24/01:00am 27.5 31.7 24.7 85 2.0 E 11 13 6 7 1007.4 1007.4 0.2
24/12:30am 27.7 31.8 24.5 83 2.2 E 11 13 6 7 1007.2 1007.2 0.0
24/12:00am 28.0 31.6 24.4 81 2.5 ESE 13 15 7 8 1007.5 1007.5 0.0
 
Date/Time
WST
Temp
°C
App
Temp
°C
Dew
Point
°C
Rel
Hum
%
Delta-T
°C
Wind Press
QNH
hPa
Press
MSL
hPa
Rain since
9am
mm
Dir  Spd
km/h
Gust
km/h
Spd
kts
Gust
kts
23/11:30pm 28.4 31.7 23.8 76 3.2 SE 13 19 7 10 1007.7 1007.7 0.0
23/11:00pm 28.1 33.9 23.9 78 2.9 CALM 0 0 0 0 1006.9 1006.9 0.0
23/10:30pm 28.5 32.7 24.1 77 3.0 SW 9 11 5 6 1007.0 1007.0 0.0
23/10:00pm 29.0 32.6 23.7 73 3.7 W 11 13 6 7 1007.0 1007.0 0.0
23/09:30pm 29.2 32.7 23.6 72 3.9 W 11 15 6 8 1006.8 1006.8 0.0
23/09:00pm 28.9 32.4 22.9 70 4.1 ENE 9 15 5 8 1006.5 1006.5 0.0
23/08:30pm 28.5 30.7 23.2 73 3.6 E 17 22 9 12 1006.7 1006.7 0.0
23/08:15pm 28.3 30.6 24.1 78 2.9 ENE 19 44 10 24 1006.7 1006.7 0.0
23/08:00pm 28.1 30.9 23.7 77 3.0 NNW 15 15 8 8 1005.3 1005.3 0.0
23/07:30pm 28.5 32.1 23.0 72 3.8 WSW 9 13 5 7 1006.0 1006.0 0.0
23/07:00pm 28.2 27.6 22.7 72 3.7 SSW 30 35 16 19 1006.2 1006.2 0.0
23/06:35pm 29.1 30.5 22.6 68 4.4 SE 19 44 10 24 1005.7 1005.7 0.0
23/06:30pm 28.9 32.6 23.3 72 3.8 E 9 15 5 8 1004.8 1004.8 0.0
23/06:00pm 29.3 32.7 22.0 64 4.9 ESE 7 13 4 7 1004.0 1004.0 0.0
23/05:30pm 29.5 31.0 21.2 61 5.5 N 15 24 8 13 1002.5 1002.5 0.0
23/05:24pm 28.3 29.6 21.6 67 4.5 SSW 17 28 9 15 1002.6 1002.6 0.0
23/05:00pm 27.8 24.3 22.3 72 3.7 S 44 63 24 34 1003.4 1003.4 0.0
23/04:33pm 27.9 22.2 22.8 74 3.5 S 57 76 31 41 1003.5 1003.5 0.0
23/04:30pm 28.4 22.9 23.1 73 3.6 S 57 76 31 41 1003.6 1003.6 0.0
23/04:24pm 30.1 27.0 23.0 65 4.9 S 44 76 24 41 1003.2 1003.2 0.0
23/04:22pm 31.5 29.7 23.6 63 5.5 S 39 61 21 33 1003.3 1003.3 0.0
23/04:19pm 31.8 30.6 23.3 60 5.9 SSE 35 46 19 25 1003.2 1003.2 0.0
23/04:12pm 32.5 32.2 24.8 64 5.4 ESE 35 50 19 27 1002.7 1002.7 0.0
23/04:05pm 33.1 34.8 21.6 51 7.8 NNE 15 50 8 27 1002.3 1002.3 0.0
23/04:00pm 37.3 41.5 24.8 49 8.9 N 11 15 6 8 1001.9 1001.9 0.0
23/03:30pm 37.4 41.3 24.2 47 9.3 NNW 11 19 6 10 1001.5 1001.5 0.0
23/03:00pm 37.5 41.2 24.6 47 9.2 NNW 13 22 7 12 1001.3 1001.3 0.0
23/02:30pm 37.1 40.8 23.9 46 9.3 NW 11 19 6 10 1002.3 1002.3 0.0
23/02:00pm 36.6 40.7 25.8 54 7.8 NNW 15 20 8 11 1003.0 1003.0 0.0
23/01:30pm 36.4 40.4 25.6 54 7.7 NNW 15 22 8 12 1003.6 1003.6 0.0
23/01:00pm 36.0 39.7 24.6 52 8.1 NW 13 20 7 11 1004.2 1004.2 0.0
23/12:30pm 35.4 40.2 26.2 59 6.6 NW 13 24 7 13 1004.7 1004.7 0.0
23/12:00pm 34.6 39.0 25.7 60 6.4 WNW 13 20 7 11 1005.4 1005.4 0.0
23/11:30am 34.1 39.4 25.8 62 5.9 WSW 9 15 5 8 1005.9 1005.9 0.0
23/11:00am 32.5 36.4 24.8 64 5.4 WSW 13 20 7 11 1006.3 1006.3 0.0
23/10:30am 32.2 35.4 25.0 65 5.1 WSW 17 24 9 13 1006.7 1006.7 0.0
23/10:00am 31.3 34.3 24.7 68 4.6 WSW 17 20 9 11 1007.0 1007.0 0.0
23/09:30am 30.8 34.0 24.9 71 4.1 WSW 17 20 9 11 1007.2 1007.2 0.0
23/09:00am 30.2 32.7 24.8 73 3.8 WSW 20 24 11 13 1007.2 1007.2 0.2
23/08:30am 29.7 32.3 24.6 74 3.6 W 19 22 10 12 1007.3 1007.3 0.2
23/08:00am 28.9 32.6 24.5 77 3.1 WNW 13 15 7 8 1007.2 1007.2 0.2
23/07:30am 28.4 31.6 24.4 79 2.8 WNW 15 17 8 9 1007.1 1007.1 0.2
23/07:00am 27.9 31.3 24.1 80 2.6 WNW 13 15 7 8 1006.9 1006.9 0.2
23/06:30am 27.7 30.8 23.5 78 2.9 W 13 15 7 8 1006.7 1006.7 0.2
23/06:00am 27.5 30.4 23.1 77 3.0 W 13 15 7 8 1006.7 1006.7 0.2
23/05:30am 27.3 30.7 23.3 79 2.7 WNW 11 13 6 7 1006.2 1006.2 0.2
23/05:00am 27.2 30.3 22.8 77 3.0 W 11 13 6 7 1005.8 1005.8 0.2
23/04:30am 27.5 30.6 23.5 79 2.7 W 13 15 7 8 1005.4 1005.4 0.2
23/04:00am 27.3 29.6 23.5 80 2.6 WNW 17 19 9 10 1005.1 1005.1 0.2
23/03:30am 27.5 31.1 23.7 80 2.6 NW 11 13 6 7 1005.4 1005.4 0.2
23/03:00am 27.7 31.4 23.3 77 3.0 NW 9 11 5 6 1005.6 1005.6 0.2
23/02:30am 27.6 32.6 24.8 85 2.0 N 7 9 4 5 1005.7 1005.7 0.2
23/02:00am 27.6 32.7 25.0 86 1.8 WNW 7 9 4 5 1005.9 1005.9 0.2
23/01:30am 27.6 34.1 25.0 86 1.8 CALM 0 0 0 0 1006.0 1006.0 0.2
23/01:00am 27.7 31.2 24.9 85 2.0 SW 15 17 8 9 1006.2 1006.2 0.2
23/12:30am 27.9 32.5 24.7 83 2.2 W 9 11 5 6 1005.5 1005.5 0.2
23/12:00am 27.9 31.6 24.5 82 2.4 NW 13 15 7 8 1005.9 1005.9 0.2
 
Date/Time
WST
Temp
°C
App
Temp
°C
Dew
Point
°C
Rel
Hum
%
Delta-T
°C
Wind Press
QNH
hPa
Press
MSL
hPa
Rain since
9am
mm
Dir  Spd
km/h
Gust
km/h
Spd
kts
Gust
kts
22/11:30pm 28.2 30.2 24.0 78 2.9 NW 20 28 11 15 1006.6 1006.6 0.2
22/11:00pm 28.9 31.6 24.7 78 2.9 NW 19 26 10 14 1006.7 1006.7 0.2
22/10:30pm 29.0 33.9 24.3 76 3.3 E 6 9 3 5 1007.5 1007.5 0.2
22/10:00pm 28.8 32.4 24.4 77 3.1 ESE 13 13 7 7 1007.4 1007.4 0.2
22/09:30pm 28.8 32.1 23.9 75 3.4 ENE 13 15 7 8 1007.0 1007.0 0.2
22/09:00pm 28.9 31.4 23.8 74 3.5 E 17 20 9 11 1007.0 1007.0 0.2
22/08:40pm 28.9 30.7 24.2 76 3.3 SE 22 37 12 20 1006.9 1006.9 0.2
22/08:30pm 29.0 34.6 24.3 76 3.3 NW 2 6 1 3 1006.3 1006.3 0.2

Other formats

Comma delimited format used in spreadsheet applications
http://www.bom.gov.au/fwo/IDW60801/IDW60801.95214.axf

JavaScript Object Notation format (JSON) in row-major order
http://www.bom.gov.au/fwo/IDW60801/IDW60801.95214.json

Data quality

Most of these data are generated automatically and are frequently updated. Quality checks on data are not normally performed. It is possible for incorrect values to appear. Refer to information at About Latest Weather Observations and please check the disclaimer before using these data.